aviador You're here:

CYKF Decoded Metar

WATERLOO in ON, CANADA
Report Time2017-06-25 13:00:00
UTC Time2017-06-25 13:56:10
Flight Rules vfr VFR
Wind230° at 10 kt
W.Decomp.*RWY 26: 9.4 kt HW 3.4 kt LCW
RWY 32: 1.7 kt HW 9.8 kt LCW
W.Rank230° ranks 4
Current wind is below 230° avg. (10.0)
Visibility9999 m
Phenomena:N/A
Clouds:N/A
Expected CloudBase > 2,800 ft AGL from Temp-Dew spread
CeilingNone
Temp18°C (ISA +5)
Dew Point11°C (64% RH)
AAT14.7°C
QNH1015 hPa
Density Alt1,745 ft
Elevation1,040 ft
Report Wrong Elevation
Raw Report
CYKF 251300Z AUTO 23010KT 9SM CLR 18/11 A2996 RMK SLP145 DENSITY
ALT 1600FT=

Extra information for CYKF:More info

Metar Taf Metar & Taf Last 4 Metars F.Rules Stats Wind Profile Meteogram Temp Stats Airport Information Weather charts Add Link Nearby VenuesMetar ALERT Operation Metar Decoded Social comments